Time;durP1;ratioP1;P1;durP2;ratioP2;P2;SDS_P1;SDS_P2;PMS_P1;PMS_P2;Temp;Humidity;BMP_temperature;BMP_pressure;BME280_temperature;BME280_humidity;BME280_pressure;Samples;Min_cycle;Max_cycle;Signal;HPM_P1;HPM_P2
2021/10/26 00:01:07;;;;;;;;;9.25;8.25;;;;;;;;5073310;28;45517;-71
2021/10/26 00:03:32;;;;;;;;;10.75;9.00;;;;;;;;5079470;27;46302;-71
2021/10/26 00:05:58;;;;;;;;;7.75;7.75;;;;;;;;5076957;27;45273;-71
2021/10/26 00:08:23;;;;;;;;;7.25;6.75;;;;;;;;5077478;27;45482;-71
2021/10/26 00:10:48;;;;;;;;;14.50;13.25;;;;;;;;5077067;27;45474;-72
2021/10/26 00:13:14;;;;;;;;;8.75;7.50;;;;;;;;5073563;27;46107;-72
2021/10/26 00:15:39;;;;;;;;;9.75;9.75;;;;;;;;5078880;27;45347;-73
2021/10/26 00:18:04;;;;;;;;;9.75;8.75;;;;;;;;5077470;27;45482;-71
2021/10/26 00:20:31;;;;;;;;;6.75;5.00;;;;;;;;5077513;27;45391;-72
2021/10/26 00:22:56;;;;;;;;;9.50;7.50;;;;;;;;5077248;27;47107;-73
2021/10/26 00:25:22;;;;;;;;;7.25;7.25;;;;;;;;5074147;27;45343;-72
2021/10/26 00:27:47;;;;;;;;;7.25;7.00;;;;;;;;5076776;27;45505;-73
2021/10/26 00:30:12;;;;;;;;;5.00;5.00;;;;;;;;5078126;27;45441;-72
2021/10/26 00:32:37;;;;;;;;;7.75;6.75;;;;;;;;5077050;27;45470;-72
2021/10/26 00:35:03;;;;;;;;;9.75;9.00;;;;;;;;5075982;27;45484;-72
2021/10/26 00:37:29;;;;;;;;;10.50;9.50;;;;;;;;5073722;27;45419;-72
2021/10/26 00:39:54;;;;;;;;;9.00;8.00;;;;;;;;5073938;27;45453;-72
2021/10/26 00:42:19;;;;;;;;;6.00;6.00;;;;;;;;5078590;27;47157;-73
2021/10/26 00:44:45;;;;;;;;;10.25;9.00;;;;;;;;5079656;27;45443;-72
2021/10/26 00:47:10;;;;;;;;;10.25;8.25;;;;;;;;5080517;27;45406;-72
2021/10/26 00:49:35;;;;;;;;;9.75;8.50;;;;;;;;5079671;27;45506;-71
2021/10/26 00:52:03;;;;;;;;;7.50;7.50;;;;;;;;5076412;27;46138;-72
2021/10/26 00:54:28;;;;;;;;;7.75;6.50;;;;;;;;5081835;27;45480;-72
2021/10/26 00:56:55;;;;;;;;;7.25;7.00;;;;;;;;5080319;27;45374;-72
2021/10/26 00:59:20;;;;;;;;;7.50;6.25;;;;;;;;5080300;27;45561;-72
2021/10/26 01:01:46;;;;;;;;;7.50;7.00;;;;;;;;5080007;27;47175;-72
2021/10/26 01:04:11;;;;;;;;;6.00;6.00;;;;;;;;5076001;27;45457;-72
2021/10/26 01:06:36;;;;;;;;;6.00;4.75;;;;;;;;5082375;27;45302;-72
2021/10/26 01:09:05;;;;;;;;;7.75;7.00;;;;;;;;5079793;27;45664;-72
2021/10/26 01:11:31;;;;;;;;;5.75;4.25;;;;;;;;5079989;27;46290;-72
2021/10/26 01:13:57;;;;;;;;;6.00;6.00;;;;;;;;5078626;27;45422;-72
2021/10/26 01:16:22;;;;;;;;;7.50;6.00;;;;;;;;5075964;27;45481;-72
2021/10/26 01:18:48;;;;;;;;;9.25;8.75;;;;;;;;5079393;27;45395;-72
2021/10/26 01:21:14;;;;;;;;;9.25;6.75;;;;;;;;5080960;27;46176;-72
2021/10/26 01:23:39;;;;;;;;;6.75;6.00;;;;;;;;5079385;27;45456;-72
2021/10/26 01:26:04;;;;;;;;;5.00;4.75;;;;;;;;5079840;27;45483;-73
2021/10/26 01:28:29;;;;;;;;;6.00;6.00;;;;;;;;5060631;27;45499;-72
2021/10/26 01:30:55;;;;;;;;;6.50;5.50;;;;;;;;5077011;27;45367;-73
2021/10/26 01:33:20;;;;;;;;;6.00;4.50;;;;;;;;5081996;27;45415;-73
2021/10/26 01:35:45;;;;;;;;;6.00;2.00;;;;;;;;5079815;27;45551;-73
2021/10/26 01:38:11;;;;;;;;;5.00;5.00;;;;;;;;5079276;27;45473;-71
2021/10/26 01:40:36;;;;;;;;;4.00;3.00;;;;;;;;5078528;27;45415;-72
2021/10/26 01:43:02;;;;;;;;;3.25;3.00;;;;;;;;5076051;27;45739;-71
2021/10/26 01:45:27;;;;;;;;;7.00;5.50;;;;;;;;5081910;27;45498;-73
2021/10/26 01:47:52;;;;;;;;;7.00;4.50;;;;;;;;5061412;28;45486;-72
2021/10/26 01:50:18;;;;;;;;;7.00;4.00;;;;;;;;5079308;27;46959;-73
2021/10/26 01:52:45;;;;;;;;;4.50;4.50;;;;;;;;5077483;27;45500;-73
2021/10/26 01:55:10;;;;;;;;;4.00;4.00;;;;;;;;5072439;27;45501;-71
2021/10/26 01:57:36;;;;;;;;;5.50;5.00;;;;;;;;5081365;27;45416;-72
2021/10/26 02:00:05;;;;;;;;;5.00;3.50;;;;;;;;5079280;27;45492;-72
2021/10/26 02:02:30;;;;;;;;;5.00;4.00;;;;;;;;5079381;27;45390;-70
2021/10/26 02:04:55;;;;;;;;;4.25;3.75;;;;;;;;5079350;27;45308;-72
2021/10/26 02:07:20;;;;;;;;;4.50;3.75;;;;;;;;5075785;27;45577;-71
2021/10/26 02:09:46;;;;;;;;;2.75;2.50;;;;;;;;5079064;27;45137;-72
2021/10/26 02:12:11;;;;;;;;;3.25;3.00;;;;;;;;5079786;27;45322;-72
2021/10/26 02:14:36;;;;;;;;;4.50;4.50;;;;;;;;5079086;27;45369;-72
2021/10/26 02:17:03;;;;;;;;;5.50;5.25;;;;;;;;5079137;27;45509;-71
2021/10/26 02:19:28;;;;;;;;;5.75;5.75;;;;;;;;5076916;27;46346;-72
2021/10/26 02:21:53;;;;;;;;;4.50;4.50;;;;;;;;5075891;27;45522;-72
2021/10/26 02:24:19;;;;;;;;;4.00;4.00;;;;;;;;5080965;27;45406;-72
2021/10/26 02:26:45;;;;;;;;;4.50;4.50;;;;;;;;5078915;27;45517;-72
2021/10/26 02:29:10;;;;;;;;;4.00;4.00;;;;;;;;5078544;27;47319;-72
2021/10/26 02:31:35;;;;;;;;;5.50;5.00;;;;;;;;5076386;27;45422;-73
2021/10/26 02:34:00;;;;;;;;;4.00;4.00;;;;;;;;5075499;27;45423;-72
2021/10/26 02:36:25;;;;;;;;;6.00;4.75;;;;;;;;5078918;27;45314;-72
2021/10/26 02:38:51;;;;;;;;;4.00;4.00;;;;;;;;5060278;28;47617;-72
2021/10/26 02:41:16;;;;;;;;;4.00;4.00;;;;;;;;5078602;27;45478;-72
2021/10/26 02:43:42;;;;;;;;;4.50;4.25;;;;;;;;5079155;27;45350;-71
2021/10/26 02:46:07;;;;;;;;;3.50;3.50;;;;;;;;5058212;28;45355;-71
2021/10/26 02:48:33;;;;;;;;;3.50;3.00;;;;;;;;5081121;27;45367;-71
2021/10/26 02:50:58;;;;;;;;;3.00;3.00;;;;;;;;5077984;27;45395;-72
2021/10/26 02:53:23;;;;;;;;;4.00;4.00;;;;;;;;5078556;27;45486;-72
2021/10/26 02:55:49;;;;;;;;;6.75;4.00;;;;;;;;5078371;27;45615;-72
2021/10/26 02:58:14;;;;;;;;;4.00;2.75;;;;;;;;5074558;27;45399;-72
2021/10/26 03:00:41;;;;;;;;;3.25;3.25;;;;;;;;5079066;27;45348;-72
2021/10/26 03:03:06;;;;;;;;;4.00;4.00;;;;;;;;5078361;27;45561;-72
2021/10/26 03:05:31;;;;;;;;;5.50;4.00;;;;;;;;5077908;27;45355;-72
2021/10/26 03:07:56;;;;;;;;;5.25;5.25;;;;;;;;5077828;27;46187;-71
2021/10/26 03:10:22;;;;;;;;;3.00;3.00;;;;;;;;5056082;27;45647;-72
2021/10/26 03:12:47;;;;;;;;;5.50;5.25;;;;;;;;5077229;27;45351;-71
2021/10/26 03:15:12;;;;;;;;;4.50;2.25;;;;;;;;5077845;27;45524;-71
2021/10/26 03:17:38;;;;;;;;;6.00;4.50;;;;;;;;5077597;27;45435;-71
2021/10/26 03:20:05;;;;;;;;;8.00;8.00;;;;;;;;5077968;27;45417;-72
2021/10/26 03:22:30;;;;;;;;;2.50;2.50;;;;;;;;5076878;27;45422;-72
2021/10/26 03:24:55;;;;;;;;;4.00;4.00;;;;;;;;5074632;27;45355;-72
2021/10/26 03:27:21;;;;;;;;;7.50;6.75;;;;;;;;5079494;27;46993;-72
2021/10/26 03:29:46;;;;;;;;;4.75;4.25;;;;;;;;5058848;27;45444;-72
2021/10/26 03:32:12;;;;;;;;;5.00;4.25;;;;;;;;5077588;27;45478;-72
2021/10/26 03:34:37;;;;;;;;;2.75;2.75;;;;;;;;5077256;27;45467;-72
2021/10/26 03:37:04;;;;;;;;;2.50;2.50;;;;;;;;5073341;27;47283;-72
2021/10/26 03:39:29;;;;;;;;;4.00;4.00;;;;;;;;5079258;27;45359;-72
2021/10/26 03:41:54;;;;;;;;;2.00;2.00;;;;;;;;5077114;27;45265;-72
2021/10/26 03:44:20;;;;;;;;;2.50;2.00;;;;;;;;5077533;27;45413;-72
2021/10/26 03:46:45;;;;;;;;;6.25;5.25;;;;;;;;5076827;27;46157;-71
2021/10/26 03:49:10;;;;;;;;;4.75;3.00;;;;;;;;5071862;27;45446;-72
2021/10/26 03:51:35;;;;;;;;;2.25;2.25;;;;;;;;5079050;27;45667;-71
2021/10/26 03:54:00;;;;;;;;;3.75;2.50;;;;;;;;5075658;27;45683;-71
2021/10/26 03:56:26;;;;;;;;;4.50;4.50;;;;;;;;5076999;27;46111;-72
2021/10/26 03:58:51;;;;;;;;;3.75;3.75;;;;;;;;5077064;27;45213;-72
2021/10/26 04:01:17;;;;;;;;;5.75;5.75;;;;;;;;5073887;27;45446;-72
2021/10/26 04:03:43;;;;;;;;;3.00;3.00;;;;;;;;5059293;28;45513;-72
2021/10/26 04:06:13;;;;;;;;;1.50;1.50;;;;;;;;5077684;27;45311;-71
2021/10/26 04:13:38;;;;;;;;;5.00;5.00;;;;;;;;5076921;27;45292;-72
2021/10/26 04:16:03;;;;;;;;;4.25;4.25;;;;;;;;5072248;27;49251;-71
2021/10/26 04:18:28;;;;;;;;;5.25;4.00;;;;;;;;5080084;27;45364;-73
2021/10/26 04:20:54;;;;;;;;;5.25;4.75;;;;;;;;5080087;27;45672;-71
2021/10/26 04:23:20;;;;;;;;;3.25;3.25;;;;;;;;5079858;27;45327;-71
2021/10/26 04:25:45;;;;;;;;;4.00;4.00;;;;;;;;5080260;27;46304;-72
2021/10/26 04:28:10;;;;;;;;;4.75;4.25;;;;;;;;5074361;27;45545;-72
2021/10/26 04:30:36;;;;;;;;;6.00;4.75;;;;;;;;5081296;27;45318;-71
2021/10/26 04:33:02;;;;;;;;;5.50;3.25;;;;;;;;5078782;27;45150;-71
2021/10/26 04:35:28;;;;;;;;;5.75;3.25;;;;;;;;5079856;27;45587;-71
2021/10/26 04:37:53;;;;;;;;;6.00;5.00;;;;;;;;5079562;27;45371;-72
2021/10/26 04:40:18;;;;;;;;;5.25;5.25;;;;;;;;5076914;27;45448;-72
2021/10/26 04:42:43;;;;;;;;;4.75;4.75;;;;;;;;5079865;27;45418;-71
2021/10/26 04:45:09;;;;;;;;;9.25;7.25;;;;;;;;5080107;27;45387;-71
2021/10/26 04:47:34;;;;;;;;;5.50;5.00;;;;;;;;5079525;27;45462;-71
2021/10/26 04:49:59;;;;;;;;;7.50;6.25;;;;;;;;5079775;27;45464;-71
2021/10/26 04:52:25;;;;;;;;;5.25;3.50;;;;;;;;5076947;27;45454;-73
2021/10/26 04:54:50;;;;;;;;;5.50;4.00;;;;;;;;5058846;28;46159;-72
2021/10/26 04:57:15;;;;;;;;;3.00;3.00;;;;;;;;5080128;27;45367;-72
2021/10/26 04:59:40;;;;;;;;;5.00;3.00;;;;;;;;5078921;27;45440;-72
2021/10/26 05:02:06;;;;;;;;;5.25;5.00;;;;;;;;5079145;27;45484;-72
2021/10/26 05:04:31;;;;;;;;;5.25;3.00;;;;;;;;5077788;27;46078;-74
2021/10/26 05:06:56;;;;;;;;;3.25;2.25;;;;;;;;5076190;27;45540;-74
2021/10/26 05:09:21;;;;;;;;;5.50;3.25;;;;;;;;5079288;27;45371;-74
2021/10/26 05:11:47;;;;;;;;;3.00;3.00;;;;;;;;5077586;27;45516;-72
2021/10/26 05:14:12;;;;;;;;;3.75;3.75;;;;;;;;5079025;27;45510;-73
2021/10/26 05:16:38;;;;;;;;;5.75;5.75;;;;;;;;5060098;27;45410;-74
2021/10/26 05:19:06;;;;;;;;;6.00;6.00;;;;;;;;5074888;27;45402;-72
2021/10/26 05:21:31;;;;;;;;;4.75;4.75;;;;;;;;5080644;27;45337;-73
2021/10/26 05:23:57;;;;;;;;;4.75;3.50;;;;;;;;5078362;27;46259;-72
2021/10/26 05:26:22;;;;;;;;;6.25;3.75;;;;;;;;5078926;27;45568;-73
2021/10/26 05:28:48;;;;;;;;;6.00;6.00;;;;;;;;5078464;27;45465;-73
2021/10/26 05:31:17;;;;;;;;;5.00;3.75;;;;;;;;5073565;27;47365;-74
2021/10/26 05:33:45;;;;;;;;;7.00;6.00;;;;;;;;5078727;27;46980;-72
2021/10/26 05:36:11;;;;;;;;;6.00;5.00;;;;;;;;5078791;27;45275;-74
2021/10/26 05:38:37;;;;;;;;;4.25;4.25;;;;;;;;5078596;27;46307;-74
2021/10/26 05:41:03;;;;;;;;;6.25;4.00;;;;;;;;5078494;27;45392;-74
2021/10/26 05:43:28;;;;;;;;;4.00;4.00;;;;;;;;5075265;27;45532;-74
2021/10/26 05:45:53;;;;;;;;;5.00;4.00;;;;;;;;5076838;27;45586;-72
2021/10/26 05:48:19;;;;;;;;;4.75;3.75;;;;;;;;5078211;27;45368;-73
2021/10/26 05:50:45;;;;;;;;;4.00;4.00;;;;;;;;5076817;27;45407;-74
2021/10/26 05:53:10;;;;;;;;;7.25;4.00;;;;;;;;5077475;27;46295;-73
2021/10/26 05:55:37;;;;;;;;;2.00;2.00;;;;;;;;5077522;27;45279;-74
2021/10/26 05:58:03;;;;;;;;;7.50;5.00;;;;;;;;5073764;27;45537;-74
2021/10/26 06:00:28;;;;;;;;;10.75;8.00;;;;;;;;5062219;28;45495;-74
2021/10/26 06:02:54;;;;;;;;;6.00;6.00;;;;;;;;5077594;27;46331;-73
2021/10/26 06:05:19;;;;;;;;;12.25;8.00;;;;;;;;5077610;27;45415;-74
2021/10/26 06:07:48;;;;;;;;;10.00;7.00;;;;;;;;5078033;27;45422;-73
2021/10/26 06:10:13;;;;;;;;;8.25;8.25;;;;;;;;5074190;27;45373;-73
2021/10/26 06:12:43;;;;;;;;;8.50;6.50;;;;;;;;5078581;27;46294;-73
2021/10/26 06:15:09;;;;;;;;;6.00;6.00;;;;;;;;5078558;27;45410;-74
2021/10/26 06:17:34;;;;;;;;;8.00;6.75;;;;;;;;5077728;27;45721;-74
2021/10/26 06:19:59;;;;;;;;;8.00;7.00;;;;;;;;5059665;27;45380;-73
2021/10/26 06:22:24;;;;;;;;;5.25;5.25;;;;;;;;5075499;27;45495;-73
2021/10/26 06:24:49;;;;;;;;;8.25;8.25;;;;;;;;5075664;27;45595;-75
2021/10/26 06:27:15;;;;;;;;;7.25;7.25;;;;;;;;5077089;27;45346;-74
2021/10/26 06:29:41;;;;;;;;;10.25;10.25;;;;;;;;5075419;27;45458;-74
2021/10/26 06:32:06;;;;;;;;;10.50;10.50;;;;;;;;5077522;27;46978;-74
2021/10/26 06:34:31;;;;;;;;;15.50;12.75;;;;;;;;5075846;27;45214;-73
2021/10/26 06:36:56;;;;;;;;;3.50;3.25;;;;;;;;5074548;27;45241;-75
2021/10/26 06:39:22;;;;;;;;;17.50;15.25;;;;;;;;5080213;27;45457;-73
2021/10/26 06:41:48;;;;;;;;;14.00;12.75;;;;;;;;5076934;27;46155;-75
2021/10/26 06:44:13;;;;;;;;;12.50;10.75;;;;;;;;5077023;27;45628;-74
2021/10/26 06:46:38;;;;;;;;;11.00;9.00;;;;;;;;5076646;27;45391;-74
2021/10/26 06:49:03;;;;;;;;;11.25;11.25;;;;;;;;5072751;27;45464;-75
2021/10/26 06:51:29;;;;;;;;;11.00;10.25;;;;;;;;5078462;27;46022;-74
2021/10/26 06:53:55;;;;;;;;;13.25;10.00;;;;;;;;5077256;27;45295;-76
2021/10/26 06:56:21;;;;;;;;;10.75;10.75;;;;;;;;5076528;27;45559;-73
2021/10/26 06:58:46;;;;;;;;;9.75;9.75;;;;;;;;5076837;27;45443;-73
2021/10/26 07:01:11;;;;;;;;;11.75;11.75;;;;;;;;5072826;27;46292;-74
2021/10/26 07:03:37;;;;;;;;;7.25;7.25;;;;;;;;5078139;27;45696;-72
2021/10/26 07:06:03;;;;;;;;;14.00;14.00;;;;;;;;5086401;27;45456;-73
2021/10/26 07:08:29;;;;;;;;;18.50;14.50;;;;;;;;5080046;27;45542;-76
2021/10/26 07:10:56;;;;;;;;;11.75;11.75;;;;;;;;5075968;27;46158;-75
2021/10/26 07:13:22;;;;;;;;;15.75;14.75;;;;;;;;5073809;27;45428;-74
2021/10/26 07:15:48;;;;;;;;;11.25;11.25;;;;;;;;5075806;27;45347;-75
2021/10/26 07:18:13;;;;;;;;;13.50;12.00;;;;;;;;5079316;27;45294;-74
2021/10/26 07:20:39;;;;;;;;;8.25;6.75;;;;;;;;5077662;27;45732;-74
2021/10/26 07:23:04;;;;;;;;;16.75;14.00;;;;;;;;5078073;27;45316;-76
2021/10/26 07:25:29;;;;;;;;;9.75;9.75;;;;;;;;5075499;27;45530;-75
2021/10/26 07:27:58;;;;;;;;;10.00;10.00;;;;;;;;5074923;27;45502;-73
2021/10/26 07:30:24;;;;;;;;;11.00;11.00;;;;;;;;5093300;27;46569;-72
2021/10/26 07:32:49;;;;;;;;;15.50;13.50;;;;;;;;5078598;27;45305;-74
2021/10/26 07:35:15;;;;;;;;;13.50;8.50;;;;;;;;5080648;27;45340;-72
2021/10/26 07:37:43;;;;;;;;;13.25;11.25;;;;;;;;5087416;27;45605;-73
2021/10/26 07:40:09;;;;;;;;;11.00;10.00;;;;;;;;5055173;28;45347;-73
2021/10/26 07:42:35;;;;;;;;;14.50;12.75;;;;;;;;5078250;27;45458;-72
2021/10/26 07:45:00;;;;;;;;;10.25;10.25;;;;;;;;5075136;27;45418;-72
2021/10/26 07:47:26;;;;;;;;;9.50;8.25;;;;;;;;5074566;27;45351;-74
2021/10/26 07:49:52;;;;;;;;;12.25;12.25;;;;;;;;5076400;27;46201;-76
2021/10/26 07:52:17;;;;;;;;;12.25;10.75;;;;;;;;5072103;28;45483;-75
2021/10/26 07:54:49;;;;;;;;;11.00;10.00;;;;;;;;5075439;27;45430;-75
2021/10/26 07:57:14;;;;;;;;;8.50;4.00;;;;;;;;5081088;27;45495;-75
2021/10/26 07:59:43;;;;;;;;;11.75;11.75;;;;;;;;5078750;27;45425;-75
2021/10/26 08:02:08;;;;;;;;;14.00;10.00;;;;;;;;5079414;27;45473;-74
2021/10/26 08:04:33;;;;;;;;;13.00;11.75;;;;;;;;5078067;27;45428;-74
2021/10/26 08:07:00;;;;;;;;;14.25;12.75;;;;;;;;5075647;27;45183;-75
2021/10/26 08:09:25;;;;;;;;;11.75;11.50;;;;;;;;5079200;27;47059;-75
2021/10/26 08:11:51;;;;;;;;;11.75;10.75;;;;;;;;5078908;27;45516;-75
2021/10/26 08:14:16;;;;;;;;;12.00;11.75;;;;;;;;5079336;27;45241;-74
2021/10/26 08:16:41;;;;;;;;;10.25;10.25;;;;;;;;5079010;27;45444;-75
2021/10/26 08:19:07;;;;;;;;;13.50;9.25;;;;;;;;5076616;27;46355;-74
2021/10/26 08:21:32;;;;;;;;;10.75;10.75;;;;;;;;5082166;27;45295;-73
2021/10/26 08:23:58;;;;;;;;;16.25;14.50;;;;;;;;5078339;27;45511;-75
2021/10/26 08:26:47;;;;;;;;;16.25;12.00;;;;;;;;5078331;27;45420;-75
2021/10/26 08:29:30;;;;;;;;;17.00;12.50;;;;;;;;5077488;27;45866;-75
2021/10/26 08:37:07;;;;;;;;;15.25;13.25;;;;;;;;5074415;27;45316;-75
2021/10/26 08:39:35;;;;;;;;;10.50;10.50;;;;;;;;5081062;27;46223;-74
2021/10/26 08:42:03;;;;;;;;;14.50;14.50;;;;;;;;5078884;27;45529;-74
2021/10/26 08:44:28;;;;;;;;;10.25;10.25;;;;;;;;5079261;27;45330;-75
2021/10/26 08:46:54;;;;;;;;;10.50;10.00;;;;;;;;5079405;27;45451;-74
2021/10/26 08:49:20;;;;;;;;;13.50;10.50;;;;;;;;5074170;27;47036;-75
2021/10/26 08:51:47;;;;;;;;;15.75;14.50;;;;;;;;5078059;27;45347;-74
2021/10/26 08:54:13;;;;;;;;;19.00;17.50;;;;;;;;5079716;27;45573;-75
2021/10/26 08:56:38;;;;;;;;;14.00;13.00;;;;;;;;5078808;27;45388;-74
2021/10/26 08:59:04;;;;;;;;;15.75;11.25;;;;;;;;5078687;27;46245;-73
2021/10/26 09:01:30;;;;;;;;;18.00;15.75;;;;;;;;5057505;27;45447;-75
2021/10/26 09:04:15;;;;;;;;;10.75;8.25;;;;;;;;5076857;27;45237;-74
2021/10/26 09:06:45;;;;;;;;;14.25;12.50;;;;;;;;5088590;27;45459;-76
2021/10/26 09:09:13;;;;;;;;;13.00;13.00;;;;;;;;5078670;27;47253;-73
2021/10/26 09:16:39;;;;;;;;;21.00;15.75;;;;;;;;5079206;27;45392;-75
2021/10/26 09:17:17;;;;;;;;;12.00;10.50;;;;;;;;5079351;27;45396;-75
2021/10/26 09:19:44;;;;;;;;;12.50;11.50;;;;;;;;5077918;27;46177;-75
2021/10/26 09:22:09;;;;;;;;;8.75;8.50;;;;;;;;5074469;27;45280;-74
2021/10/26 09:24:34;;;;;;;;;13.50;10.25;;;;;;;;5081023;27;45318;-76
2021/10/26 09:27:01;;;;;;;;;12.25;10.25;;;;;;;;5078936;27;45256;-74
2021/10/26 09:29:26;;;;;;;;;9.75;8.75;;;;;;;;5078237;27;46376;-75
2021/10/26 09:32:01;;;;;;;;;11.00;10.50;;;;;;;;5076175;27;45525;-74
2021/10/26 09:34:27;;;;;;;;;20.00;17.00;;;;;;;;5076505;27;45500;-74
2021/10/26 09:36:52;;;;;;;;;12.75;9.25;;;;;;;;5076088;27;45390;-76
2021/10/26 09:39:19;;;;;;;;;12.75;9.00;;;;;;;;5080079;27;46167;-74
2021/10/26 09:41:51;;;;;;;;;10.00;9.00;;;;;;;;5076483;27;47585;-76
2021/10/26 09:44:17;;;;;;;;;7.25;7.25;;;;;;;;5076553;27;45643;-75
2021/10/26 09:47:13;;;;;;;;;10.25;10.00;;;;;;;;5076303;27;45661;-75
2021/10/26 09:49:40;;;;;;;;;8.50;7.00;;;;;;;;5060074;27;46961;-75
2021/10/26 09:52:07;;;;;;;;;8.50;7.25;;;;;;;;5073700;27;45529;-75
2021/10/26 09:54:32;;;;;;;;;9.00;8.00;;;;;;;;5080235;27;45529;-74
2021/10/26 09:57:01;;;;;;;;;8.75;8.00;;;;;;;;5077878;27;45572;-74
2021/10/26 09:59:26;;;;;;;;;11.00;7.50;;;;;;;;5077821;27;47104;-75
2021/10/26 10:01:53;;;;;;;;;11.25;8.75;;;;;;;;5078036;27;45217;-75
2021/10/26 10:04:25;;;;;;;;;7.50;6.00;;;;;;;;5074319;27;45537;-75
2021/10/26 10:06:50;;;;;;;;;11.00;8.50;;;;;;;;5076574;27;45335;-76
2021/10/26 10:09:19;;;;;;;;;9.50;7.50;;;;;;;;5078469;27;46044;-74
2021/10/26 10:11:56;;;;;;;;;9.75;8.00;;;;;;;;5077536;27;45550;-74
2021/10/26 10:14:22;;;;;;;;;9.75;6.75;;;;;;;;5077731;27;45359;-75
2021/10/26 10:16:48;;;;;;;;;8.00;7.25;;;;;;;;5076167;27;45889;-75
2021/10/26 10:19:14;;;;;;;;;3.75;3.75;;;;;;;;5071713;27;46373;-75
2021/10/26 10:21:40;;;;;;;;;6.25;6.25;;;;;;;;5079057;27;45386;-75
2021/10/26 10:24:07;;;;;;;;;10.75;9.50;;;;;;;;5076108;27;46126;-74
2021/10/26 10:26:35;;;;;;;;;10.50;9.00;;;;;;;;5077596;27;45357;-74
2021/10/26 10:29:01;;;;;;;;;15.00;12.50;;;;;;;;5077302;27;46351;-74
2021/10/26 10:31:28;;;;;;;;;8.50;8.50;;;;;;;;5074673;27;45367;-74
2021/10/26 10:33:54;;;;;;;;;11.25;9.25;;;;;;;;5074836;27;45355;-75
2021/10/26 10:36:21;;;;;;;;;5.50;5.50;;;;;;;;5076806;27;45371;-74
2021/10/26 10:38:46;;;;;;;;;5.00;5.00;;;;;;;;5076543;27;45321;-75
2021/10/26 10:41:28;;;;;;;;;7.00;4.00;;;;;;;;5076535;27;45280;-75
2021/10/26 10:43:58;;;;;;;;;6.50;5.25;;;;;;;;5077187;27;45507;-75
2021/10/26 10:46:44;;;;;;;;;6.50;6.50;;;;;;;;5073413;27;45500;-74
2021/10/26 10:49:18;;;;;;;;;7.25;5.25;;;;;;;;5056147;28;45706;-74
2021/10/26 10:52:00;;;;;;;;;6.25;5.75;;;;;;;;5087068;27;45387;-75
2021/10/26 10:54:35;;;;;;;;;13.50;8.25;;;;;;;;5078956;27;45375;-75
2021/10/26 10:57:16;;;;;;;;;5.25;5.25;;;;;;;;5076507;27;45264;-76
2021/10/26 10:59:43;;;;;;;;;11.00;10.00;;;;;;;;5076927;27;46107;-76
2021/10/26 11:02:19;;;;;;;;;9.00;7.00;;;;;;;;5074749;27;45518;-75
2021/10/26 11:04:44;;;;;;;;;7.50;6.50;;;;;;;;5075491;27;45466;-75
2021/10/26 11:07:09;;;;;;;;;12.75;9.75;;;;;;;;5072534;27;45375;-74
2021/10/26 11:09:36;;;;;;;;;6.00;6.00;;;;;;;;5078648;27;46510;-75
2021/10/26 11:12:12;;;;;;;;;7.00;7.00;;;;;;;;5076658;27;45588;-75
2021/10/26 11:14:51;;;;;;;;;6.25;6.25;;;;;;;;5076289;27;45578;-74
2021/10/26 11:17:32;;;;;;;;;5.25;4.50;;;;;;;;5076374;27;45385;-75
2021/10/26 11:19:57;;;;;;;;;3.50;3.00;;;;;;;;5074931;27;46572;-75
2021/10/26 11:22:41;;;;;;;;;3.75;3.25;;;;;;;;5074373;27;45855;-75
2021/10/26 11:25:21;;;;;;;;;8.00;5.75;;;;;;;;5072260;27;45465;-76
2021/10/26 11:27:47;;;;;;;;;7.00;6.00;;;;;;;;5086564;27;45390;-74
2021/10/26 11:30:24;;;;;;;;;7.75;5.75;;;;;;;;5077168;27;46253;-75
2021/10/26 11:33:12;;;;;;;;;5.00;5.00;;;;;;;;5076003;27;45434;-74
2021/10/26 11:36:07;;;;;;;;;10.50;8.50;;;;;;;;5076146;27;45471;-75
2021/10/26 11:38:41;;;;;;;;;7.50;4.75;;;;;;;;5074617;27;45496;-75
2021/10/26 11:41:11;;;;;;;;;4.50;3.50;;;;;;;;5074750;27;47100;-74
2021/10/26 11:43:45;;;;;;;;;4.50;3.25;;;;;;;;5075992;27;45314;-75
2021/10/26 11:46:12;;;;;;;;;5.00;4.00;;;;;;;;5054779;28;45595;-77
2021/10/26 11:48:47;;;;;;;;;4.00;2.50;;;;;;;;5085930;27;45474;-74
2021/10/26 11:51:22;;;;;;;;;2.50;2.50;;;;;;;;5058552;28;46226;-76
2021/10/26 11:53:47;;;;;;;;;2.25;2.00;;;;;;;;5075661;27;45414;-75
2021/10/26 11:56:20;;;;;;;;;3.00;3.00;;;;;;;;5075917;27;45385;-74
2021/10/26 11:58:54;;;;;;;;;4.00;4.00;;;;;;;;5076631;27;45515;-74
2021/10/26 12:01:21;;;;;;;;;3.33;3.33;;;;;;;;5072615;27;47216;-74
2021/10/26 12:03:47;;;;;;;;;5.67;2.00;;;;;;;;5076437;27;45307;-75
2021/10/26 12:06:12;;;;;;;;;2.67;2.67;;;;;;;;5077701;27;45289;-74
2021/10/26 12:08:39;;;;;;;;;3.00;2.00;;;;;;;;5076346;27;45514;-74
2021/10/26 12:11:05;;;;;;;;;2.00;2.00;;;;;;;;5076367;27;46144;-75
2021/10/26 12:13:30;;;;;;;;;3.33;3.00;;;;;;;;5074688;27;45508;-75
2021/10/26 12:15:56;;;;;;;;;3.33;3.33;;;;;;;;5090505;27;45362;-74
2021/10/26 12:18:33;;;;;;;;;3.00;3.00;;;;;;;;5075731;27;45270;-75
2021/10/26 12:21:03;;;;;;;;;3.00;3.00;;;;;;;;5074173;27;45559;-75
2021/10/26 12:23:29;;;;;;;;;2.33;2.33;;;;;;;;5074903;27;45363;-74
2021/10/26 12:25:57;;;;;;;;;3.33;3.00;;;;;;;;5076661;27;45521;-75
2021/10/26 12:28:23;;;;;;;;;2.67;1.67;;;;;;;;5074109;27;45239;-74
2021/10/26 12:30:51;;;;;;;;;3.33;3.33;;;;;;;;5075922;27;47157;-75
2021/10/26 12:33:18;;;;;;;;;3.33;2.33;;;;;;;;5076212;27;45527;-75
2021/10/26 12:35:46;;;;;;;;;2.00;2.00;;;;;;;;5076323;27;45537;-76
2021/10/26 12:38:16;;;;;;;;;5.00;3.33;;;;;;;;5076166;27;45571;-75
2021/10/26 12:40:43;;;;;;;;;4.67;2.00;;;;;;;;5079070;27;46427;-76
2021/10/26 12:43:10;;;;;;;;;2.00;2.00;;;;;;;;5058956;28;45518;-77
2021/10/26 12:45:36;;;;;;;;;3.33;3.33;;;;;;;;5081299;27;45469;-76
2021/10/26 12:48:07;;;;;;;;;3.33;2.33;;;;;;;;5085999;27;45792;-75
2021/10/26 12:50:38;;;;;;;;;1.67;1.67;;;;;;;;5082729;27;46190;-76
2021/10/26 12:53:18;;;;;;;;;4.00;3.00;;;;;;;;5078413;27;45485;-74
2021/10/26 12:55:55;;;;;;;;;5.67;3.00;;;;;;;;5076890;27;45419;-73
2021/10/26 12:58:37;;;;;;;;;2.67;2.67;;;;;;;;5055188;27;45481;-75
2021/10/26 13:01:26;;;;;;;;;2.00;1.00;;;;;;;;5091582;27;45499;-76
2021/10/26 13:04:13;;;;;;;;;3.67;2.67;;;;;;;;5056355;28;45188;-76
2021/10/26 13:06:38;;;;;;;;;2.67;2.67;;;;;;;;5092924;27;45425;-76
2021/10/26 13:09:06;;;;;;;;;6.33;4.00;;;;;;;;5079591;27;45312;-75
2021/10/26 13:11:34;;;;;;;;;3.33;2.33;;;;;;;;5060893;27;47301;-75
2021/10/26 13:14:03;;;;;;;;;2.33;1.67;;;;;;;;5078812;27;45447;-75
2021/10/26 13:16:33;;;;;;;;;3.00;3.00;;;;;;;;5077076;27;45365;-75
2021/10/26 13:19:28;;;;;;;;;5.00;2.00;;;;;;;;5078201;27;45358;-75
2021/10/26 13:22:06;;;;;;;;;2.67;2.67;;;;;;;;5077036;27;45610;-74
2021/10/26 13:24:31;;;;;;;;;1.00;0.67;;;;;;;;5080203;27;45244;-75
2021/10/26 13:26:56;;;;;;;;;4.00;3.00;;;;;;;;5077901;27;45307;-76
2021/10/26 13:29:22;;;;;;;;;2.50;2.50;;;;;;;;5078750;27;45558;-76
2021/10/26 13:31:47;;;;;;;;;4.00;3.75;;;;;;;;5078011;27;46314;-77
2021/10/26 13:34:13;;;;;;;;;0.00;0.00;;;;;;;;5072706;27;45416;-75
2021/10/26 13:36:39;;;;;;;;;5.25;5.25;;;;;;;;5080348;27;45756;-74
2021/10/26 13:39:06;;;;;;;;;5.67;2.67;;;;;;;;5076767;27;45718;-75
2021/10/26 13:41:41;;;;;;;;;7.33;4.00;;;;;;;;5057806;27;47230;-76
2021/10/26 13:44:06;;;;;;;;;3.67;3.67;;;;;;;;5078194;27;45480;-76
2021/10/26 13:46:32;;;;;;;;;5.67;3.67;;;;;;;;5076519;27;45366;-76
2021/10/26 13:48:58;;;;;;;;;3.00;3.00;;;;;;;;5075600;27;45374;-75
2021/10/26 13:51:23;;;;;;;;;2.00;2.00;;;;;;;;5079280;27;47112;-74
2021/10/26 13:53:50;;;;;;;;;3.33;2.33;;;;;;;;5078082;27;45415;-76
2021/10/26 13:56:15;;;;;;;;;2.75;2.75;;;;;;;;5081628;27;45426;-76
2021/10/26 13:58:41;;;;;;;;;2.00;2.00;;;;;;;;5071663;27;45500;-76
2021/10/26 14:01:13;;;;;;;;;5.75;4.00;;;;;;;;5074085;27;45984;-75
2021/10/26 14:03:38;;;;;;;;;3.00;3.00;;;;;;;;5075591;28;45355;-73
2021/10/26 14:06:03;;;;;;;;;3.00;3.00;;;;;;;;5059579;27;45248;-76
2021/10/26 14:08:30;;;;;;;;;3.00;2.00;;;;;;;;5083325;27;45385;-76
2021/10/26 14:10:56;;;;;;;;;4.75;3.50;;;;;;;;5078676;27;46151;-75
2021/10/26 14:13:21;;;;;;;;;2.50;2.50;;;;;;;;5076685;27;45473;-75
2021/10/26 14:15:46;;;;;;;;;6.50;6.50;;;;;;;;5078545;27;45559;-76
2021/10/26 14:18:12;;;;;;;;;4.25;3.75;;;;;;;;5078087;27;45292;-75
2021/10/26 14:20:42;;;;;;;;;3.00;3.00;;;;;;;;5077584;27;46224;-75
2021/10/26 14:23:07;;;;;;;;;1.50;1.50;;;;;;;;5077318;27;45466;-75
2021/10/26 14:25:34;;;;;;;;;2.00;2.00;;;;;;;;5076035;27;45463;-75
2021/10/26 14:27:59;;;;;;;;;3.00;2.00;;;;;;;;5075344;27;45220;-75
2021/10/26 14:30:24;;;;;;;;;3.75;2.00;;;;;;;;5077815;27;45269;-75
2021/10/26 14:32:51;;;;;;;;;2.75;2.75;;;;;;;;5077905;27;45416;-75
2021/10/26 14:35:26;;;;;;;;;3.00;2.75;;;;;;;;5077688;27;45336;-77
2021/10/26 14:38:01;;;;;;;;;6.00;3.50;;;;;;;;5077575;27;45387;-75
2021/10/26 14:54:25;;;;;;;;;2.00;2.00;;;;;;;;5078337;27;45492;-76
2021/10/26 14:56:51;;;;;;;;;3.75;3.75;;;;;;;;5076361;27;47159;-74
2021/10/26 14:59:16;;;;;;;;;1.00;1.00;;;;;;;;5076738;27;45427;-75
2021/10/26 15:01:42;;;;;;;;;1.50;1.50;;;;;;;;5075342;27;46340;-75
2021/10/26 15:04:08;;;;;;;;;2.25;1.75;;;;;;;;5073089;27;45396;-75
2021/10/26 15:06:35;;;;;;;;;4.25;2.50;;;;;;;;5079563;27;45394;-75